sensor_id;sensor_type;location;lat;lon;timestamp;pressure;altitude;pressure_sealevel;temperature;humidity
55301;BME280;58302;51.446;-2.000;2023-09-07T00:00:10;103124.94;;;20.68;100.00
55301;BME280;58302;51.446;-2.000;2023-09-07T00:02:36;103118.31;;;20.69;100.00
55301;BME280;58302;51.446;-2.000;2023-09-07T00:05:03;103126.38;;;20.75;100.00
55301;BME280;58302;51.446;-2.000;2023-09-07T00:07:30;103126.63;;;20.74;100.00
55301;BME280;58302;51.446;-2.000;2023-09-07T00:09:56;103114.75;;;20.73;100.00
55301;BME280;58302;51.446;-2.000;2023-09-07T00:12:22;103123.13;;;20.89;100.00
55301;BME280;58302;51.446;-2.000;2023-09-07T00:14:48;103098.25;;;20.89;100.00
55301;BME280;58302;51.446;-2.000;2023-09-07T00:17:14;103097.69;;;20.92;100.00
55301;BME280;58302;51.446;-2.000;2023-09-07T00:19:40;103082.75;;;20.93;100.00
55301;BME280;58302;51.446;-2.000;2023-09-07T00:22:06;103075.84;;;20.90;100.00
55301;BME280;58302;51.446;-2.000;2023-09-07T00:24:32;103055.66;;;20.90;100.00
55301;BME280;58302;51.446;-2.000;2023-09-07T00:26:58;103047.06;;;20.86;100.00
55301;BME280;58302;51.446;-2.000;2023-09-07T00:29:24;103049.28;;;20.79;100.00
55301;BME280;58302;51.446;-2.000;2023-09-07T00:31:50;103040.41;;;20.72;100.00
55301;BME280;58302;51.446;-2.000;2023-09-07T00:34:16;103030.41;;;20.61;100.00
55301;BME280;58302;51.446;-2.000;2023-09-07T00:36:42;103036.22;;;20.64;100.00
55301;BME280;58302;51.446;-2.000;2023-09-07T00:39:08;103047.88;;;20.71;100.00
55301;BME280;58302;51.446;-2.000;2023-09-07T00:41:34;103050.34;;;20.73;100.00
55301;BME280;58302;51.446;-2.000;2023-09-07T00:44:00;103035.97;;;20.71;100.00
55301;BME280;58302;51.446;-2.000;2023-09-07T00:46:26;103045.66;;;20.73;100.00
55301;BME280;58302;51.446;-2.000;2023-09-07T00:48:52;103030.72;;;20.69;100.00
55301;BME280;58302;51.446;-2.000;2023-09-07T00:51:18;103026.28;;;20.63;100.00
55301;BME280;58302;51.446;-2.000;2023-09-07T00:53:44;103024.03;;;20.60;100.00
55301;BME280;58302;51.446;-2.000;2023-09-07T00:56:11;103021.81;;;20.57;100.00
55301;BME280;58302;51.446;-2.000;2023-09-07T00:58:37;103013.50;;;20.52;100.00
55301;BME280;58302;51.446;-2.000;2023-09-07T01:01:03;103010.19;;;20.50;100.00
55301;BME280;58302;51.446;-2.000;2023-09-07T01:03:29;103004.03;;;20.43;100.00
55301;BME280;58302;51.446;-2.000;2023-09-07T01:06:04;103006.78;;;20.38;100.00
55301;BME280;58302;51.446;-2.000;2023-09-07T01:08:35;103020.84;;;20.31;100.00
55301;BME280;58302;51.446;-2.000;2023-09-07T01:11:14;103015.28;;;20.26;100.00
55301;BME280;58302;51.446;-2.000;2023-09-07T01:13:41;103019.97;;;20.25;100.00
55301;BME280;58302;51.446;-2.000;2023-09-07T01:16:09;103022.53;;;20.37;100.00
55301;BME280;58302;51.446;-2.000;2023-09-07T01:18:37;103023.63;;;20.36;100.00
55301;BME280;58302;51.446;-2.000;2023-09-07T01:21:07;103022.78;;;20.31;100.00
55301;BME280;58302;51.446;-2.000;2023-09-07T01:23:37;103015.84;;;20.23;100.00
55301;BME280;58302;51.446;-2.000;2023-09-07T01:26:07;103010.28;;;20.18;100.00
55301;BME280;58302;51.446;-2.000;2023-09-07T01:28:33;103009.47;;;20.17;100.00
55301;BME280;58302;51.446;-2.000;2023-09-07T01:30:59;103019.41;;;20.18;100.00
55301;BME280;58302;51.446;-2.000;2023-09-07T01:33:25;103024.91;;;20.18;100.00
55301;BME280;58302;51.446;-2.000;2023-09-07T01:35:51;103032.72;;;20.32;100.00
55301;BME280;58302;51.446;-2.000;2023-09-07T01:38:17;103040.47;;;20.35;100.00
55301;BME280;58302;51.446;-2.000;2023-09-07T01:40:43;103030.78;;;20.32;100.00
55301;BME280;58302;51.446;-2.000;2023-09-07T01:43:09;103043.75;;;20.32;100.00
55301;BME280;58302;51.446;-2.000;2023-09-07T01:45:35;103028.84;;;20.27;100.00
55301;BME280;58302;51.446;-2.000;2023-09-07T01:48:01;103036.00;;;20.23;100.00
55301;BME280;58302;51.446;-2.000;2023-09-07T01:50:27;103027.09;;;20.11;100.00
55301;BME280;58302;51.446;-2.000;2023-09-07T01:52:53;103024.22;;;19.96;100.00
55301;BME280;58302;51.446;-2.000;2023-09-07T01:55:18;103011.69;;;19.83;100.00
55301;BME280;58302;51.446;-2.000;2023-09-07T01:57:44;103006.97;;;19.73;100.00
55301;BME280;58302;51.446;-2.000;2023-09-07T02:00:11;103008.53;;;19.64;100.00
55301;BME280;58302;51.446;-2.000;2023-09-07T02:02:38;103023.34;;;19.58;100.00
55301;BME280;58302;51.446;-2.000;2023-09-07T02:05:04;103022.28;;;19.59;100.00
55301;BME280;58302;51.446;-2.000;2023-09-07T02:07:30;103053.03;;;19.73;100.00
55301;BME280;58302;51.446;-2.000;2023-09-07T02:09:56;103071.53;;;19.78;100.00
55301;BME280;58302;51.446;-2.000;2023-09-07T02:12:22;103079.59;;;19.79;100.00
55301;BME280;58302;51.446;-2.000;2023-09-07T02:14:48;103078.44;;;19.75;100.00
55301;BME280;58302;51.446;-2.000;2023-09-07T02:17:14;103065.13;;;19.67;100.00
55301;BME280;58302;51.446;-2.000;2023-09-07T02:19:44;103064.75;;;19.58;100.00
55301;BME280;58302;51.446;-2.000;2023-09-07T02:22:10;103057.78;;;19.51;100.00
55301;BME280;58302;51.446;-2.000;2023-09-07T02:24:36;103064.19;;;19.56;100.00
55301;BME280;58302;51.446;-2.000;2023-09-07T02:27:02;103078.53;;;19.58;100.00
55301;BME280;58302;51.446;-2.000;2023-09-07T02:29:28;103087.91;;;19.57;100.00
55301;BME280;58302;51.446;-2.000;2023-09-07T02:31:54;103095.69;;;19.60;100.00
55301;BME280;58302;51.446;-2.000;2023-09-07T02:34:20;103083.16;;;19.53;100.00
55301;BME280;58302;51.446;-2.000;2023-09-07T02:36:46;103096.19;;;19.57;100.00
55301;BME280;58302;51.446;-2.000;2023-09-07T02:39:13;103095.88;;;19.54;100.00
55301;BME280;58302;51.446;-2.000;2023-09-07T02:41:39;103102.53;;;19.58;100.00
55301;BME280;58302;51.446;-2.000;2023-09-07T02:44:05;103096.78;;;19.59;100.00
55301;BME280;58302;51.446;-2.000;2023-09-07T02:46:31;103096.69;;;19.54;100.00
55301;BME280;58302;51.446;-2.000;2023-09-07T02:48:57;103091.72;;;19.51;100.00
55301;BME280;58302;51.446;-2.000;2023-09-07T02:51:24;103085.66;;;19.54;100.00
55301;BME280;58302;51.446;-2.000;2023-09-07T02:53:50;103084.50;;;19.50;100.00
55301;BME280;58302;51.446;-2.000;2023-09-07T02:56:17;103074.53;;;19.44;100.00
55301;BME280;58302;51.446;-2.000;2023-09-07T02:58:43;103075.06;;;19.41;100.00
55301;BME280;58302;51.446;-2.000;2023-09-07T03:01:11;103071.97;;;19.37;100.00
55301;BME280;58302;51.446;-2.000;2023-09-07T03:03:37;103071.41;;;19.35;100.00
55301;BME280;58302;51.446;-2.000;2023-09-07T03:06:13;103064.44;;;19.28;100.00
55301;BME280;58302;51.446;-2.000;2023-09-07T03:08:40;103067.50;;;19.31;100.00
55301;BME280;58302;51.446;-2.000;2023-09-07T03:11:07;103074.13;;;19.30;100.00
55301;BME280;58302;51.446;-2.000;2023-09-07T03:13:33;103076.09;;;19.35;100.00
55301;BME280;58302;51.446;-2.000;2023-09-07T03:16:02;103111.38;;;19.33;100.00
55301;BME280;58302;51.446;-2.000;2023-09-07T03:18:29;103106.38;;;19.30;100.00
55301;BME280;58302;51.446;-2.000;2023-09-07T03:20:57;103108.81;;;19.26;100.00
55301;BME280;58302;51.446;-2.000;2023-09-07T03:23:23;103098.31;;;19.23;100.00
55301;BME280;58302;51.446;-2.000;2023-09-07T03:25:50;103103.25;;;19.21;100.00
55301;BME280;58302;51.446;-2.000;2023-09-07T03:28:16;103105.13;;;19.15;100.00
55301;BME280;58302;51.446;-2.000;2023-09-07T03:30:42;103099.53;;;19.10;100.00
55301;BME280;58302;51.446;-2.000;2023-09-07T03:33:08;103099.47;;;19.05;100.00
55301;BME280;58302;51.446;-2.000;2023-09-07T03:35:34;103098.59;;;19.00;100.00
55301;BME280;58302;51.446;-2.000;2023-09-07T03:38:00;103111.53;;;18.99;100.00
55301;BME280;58302;51.446;-2.000;2023-09-07T03:40:26;103112.06;;;18.96;100.00
55301;BME280;58302;51.446;-2.000;2023-09-07T03:42:52;103112.56;;;18.93;100.00
55301;BME280;58302;51.446;-2.000;2023-09-07T03:45:18;103109.47;;;18.89;100.00
55301;BME280;58302;51.446;-2.000;2023-09-07T03:47:44;103124.69;;;18.92;100.00
55301;BME280;58302;51.446;-2.000;2023-09-07T03:50:10;103133.78;;;18.92;100.00
55301;BME280;58302;51.446;-2.000;2023-09-07T03:52:36;103135.13;;;18.90;100.00
55301;BME280;58302;51.446;-2.000;2023-09-07T03:55:02;103135.63;;;18.87;100.00
55301;BME280;58302;51.446;-2.000;2023-09-07T03:57:29;103142.25;;;18.86;100.00
55301;BME280;58302;51.446;-2.000;2023-09-07T03:59:56;103141.66;;;18.84;100.00
55301;BME280;58302;51.446;-2.000;2023-09-07T04:02:23;103137.69;;;18.75;100.00
55301;BME280;58302;51.446;-2.000;2023-09-07T04:04:53;103140.94;;;18.72;100.00
55301;BME280;58302;51.446;-2.000;2023-09-07T04:07:21;103134.75;;;18.64;100.00
55301;BME280;58302;51.446;-2.000;2023-09-07T04:09:47;103140.84;;;18.66;100.00
55301;BME280;58302;51.446;-2.000;2023-09-07T04:12:16;103137.25;;;18.66;100.00
55301;BME280;58302;51.446;-2.000;2023-09-07T04:14:42;103148.53;;;18.64;100.00
55301;BME280;58302;51.446;-2.000;2023-09-07T04:17:08;103143.50;;;18.61;100.00
55301;BME280;58302;51.446;-2.000;2023-09-07T04:19:34;103160.28;;;18.60;100.00
55301;BME280;58302;51.446;-2.000;2023-09-07T04:22:00;103155.22;;;18.52;100.00
55301;BME280;58302;51.446;-2.000;2023-09-07T04:24:26;103147.94;;;18.46;100.00
55301;BME280;58302;51.446;-2.000;2023-09-07T04:26:59;103157.91;;;18.47;100.00
55301;BME280;58302;51.446;-2.000;2023-09-07T04:29:26;103156.09;;;18.35;100.00
55301;BME280;58302;51.446;-2.000;2023-09-07T04:31:52;103192.09;;;18.34;100.00
55301;BME280;58302;51.446;-2.000;2023-09-07T04:34:18;103191.44;;;18.27;100.00
55301;BME280;58302;51.446;-2.000;2023-09-07T04:36:44;103208.81;;;18.27;100.00
55301;BME280;58302;51.446;-2.000;2023-09-07T04:39:10;103208.13;;;18.20;100.00
55301;BME280;58302;51.446;-2.000;2023-09-07T04:41:36;103216.13;;;18.22;100.00
55301;BME280;58302;51.446;-2.000;2023-09-07T04:44:02;103213.22;;;18.11;100.00
55301;BME280;58302;51.446;-2.000;2023-09-07T04:46:28;103217.53;;;18.07;100.00
55301;BME280;58302;51.446;-2.000;2023-09-07T04:48:54;103210.78;;;17.98;100.00
55301;BME280;58302;51.446;-2.000;2023-09-07T04:51:20;103212.34;;;17.94;100.00
55301;BME280;58302;51.446;-2.000;2023-09-07T04:53:48;103218.69;;;17.95;100.00
55301;BME280;58302;51.446;-2.000;2023-09-07T04:56:14;103227.03;;;18.00;100.00
55301;BME280;58302;51.446;-2.000;2023-09-07T04:58:40;103325.94;;;18.06;100.00
55301;BME280;58302;51.446;-2.000;2023-09-07T05:01:07;103327.97;;;18.11;100.00
55301;BME280;58302;51.446;-2.000;2023-09-07T05:03:37;103343.66;;;18.10;100.00
55301;BME280;58302;51.446;-2.000;2023-09-07T05:06:04;103347.50;;;18.09;100.00
55301;BME280;58302;51.446;-2.000;2023-09-07T05:08:30;103360.44;;;18.09;100.00
55301;BME280;58302;51.446;-2.000;2023-09-07T05:10:57;103356.09;;;18.13;100.00
55301;BME280;58302;51.446;-2.000;2023-09-07T05:13:27;103369.00;;;18.24;100.00
55301;BME280;58302;51.446;-2.000;2023-09-07T05:15:54;103368.63;;;18.21;100.00
55301;BME280;58302;51.446;-2.000;2023-09-07T05:18:20;103363.03;;;18.15;100.00
55301;BME280;58302;51.446;-2.000;2023-09-07T05:20:47;103368.19;;;18.12;100.00
55301;BME280;58302;51.446;-2.000;2023-09-07T05:23:23;103364.75;;;18.05;100.00
55301;BME280;58302;51.446;-2.000;2023-09-07T05:25:54;103372.16;;;18.04;100.00
55301;BME280;58302;51.446;-2.000;2023-09-07T05:28:22;103365.72;;;17.99;100.00
55301;BME280;58302;51.446;-2.000;2023-09-07T05:30:48;103370.97;;;18.00;100.00
55301;BME280;58302;51.446;-2.000;2023-09-07T05:33:15;103375.38;;;18.01;100.00
55301;BME280;58302;51.446;-2.000;2023-09-07T05:35:42;103382.59;;;18.02;100.00
55301;BME280;58302;51.446;-2.000;2023-09-07T05:38:08;103387.59;;;18.05;100.00
55301;BME280;58302;51.446;-2.000;2023-09-07T05:40:39;103391.44;;;18.04;100.00
55301;BME280;58302;51.446;-2.000;2023-09-07T05:43:06;103403.63;;;18.08;100.00
55301;BME280;58302;51.446;-2.000;2023-09-07T05:45:40;103409.34;;;18.07;100.00
55301;BME280;58302;51.446;-2.000;2023-09-07T05:48:07;103421.56;;;18.11;100.00
55301;BME280;58302;51.446;-2.000;2023-09-07T05:50:34;103428.50;;;18.13;100.00
55301;BME280;58302;51.446;-2.000;2023-09-07T05:53:01;103425.75;;;18.13;100.00
55301;BME280;58302;51.446;-2.000;2023-09-07T05:55:27;103442.38;;;18.19;100.00
55301;BME280;58302;51.446;-2.000;2023-09-07T05:57:57;103430.03;;;18.21;100.00
55301;BME280;58302;51.446;-2.000;2023-09-07T06:00:23;103441.72;;;18.28;100.00
55301;BME280;58302;51.446;-2.000;2023-09-07T06:02:50;103441.84;;;18.33;100.00
55301;BME280;58302;51.446;-2.000;2023-09-07T06:05:16;103440.53;;;18.36;100.00
55301;BME280;58302;51.446;-2.000;2023-09-07T06:07:43;103448.13;;;18.46;100.00
55301;BME280;58302;51.446;-2.000;2023-09-07T06:10:10;103453.53;;;18.52;100.00
55301;BME280;58302;51.446;-2.000;2023-09-07T06:12:36;103449.19;;;18.56;100.00
55301;BME280;58302;51.446;-2.000;2023-09-07T06:15:02;103456.59;;;18.67;100.00
55301;BME280;58302;51.446;-2.000;2023-09-07T06:17:29;103455.00;;;18.72;100.00
55301;BME280;58302;51.446;-2.000;2023-09-07T06:19:56;103459.63;;;18.83;100.00
55301;BME280;58302;51.446;-2.000;2023-09-07T06:22:22;103453.97;;;18.89;100.00
55301;BME280;58302;51.446;-2.000;2023-09-07T06:24:48;103454.41;;;18.98;100.00
55301;BME280;58302;51.446;-2.000;2023-09-07T06:27:14;103465.44;;;19.15;100.00
55301;BME280;58302;51.446;-2.000;2023-09-07T06:29:40;103458.75;;;19.28;100.00
55301;BME280;58302;51.446;-2.000;2023-09-07T06:32:06;103455.69;;;19.41;100.00
55301;BME280;58302;51.446;-2.000;2023-09-07T06:34:32;103431.25;;;19.49;100.00
55301;BME280;58302;51.446;-2.000;2023-09-07T06:36:59;103421.50;;;19.59;100.00
55301;BME280;58302;51.446;-2.000;2023-09-07T06:39:25;103388.28;;;19.70;100.00
55301;BME280;58302;51.446;-2.000;2023-09-07T06:41:51;103363.56;;;19.81;100.00
55301;BME280;58302;51.446;-2.000;2023-09-07T06:44:17;103339.69;;;19.91;100.00
55301;BME280;58302;51.446;-2.000;2023-09-07T06:46:43;103294.75;;;19.96;100.00
55301;BME280;58302;51.446;-2.000;2023-09-07T06:49:09;103262.81;;;20.05;100.00
55301;BME280;58302;51.446;-2.000;2023-09-07T06:51:35;103239.72;;;20.11;100.00
55301;BME280;58302;51.446;-2.000;2023-09-07T06:54:01;103193.63;;;20.17;100.00
55301;BME280;58302;51.446;-2.000;2023-09-07T06:56:27;103180.22;;;20.31;100.00
55301;BME280;58302;51.446;-2.000;2023-09-07T06:58:55;103156.56;;;20.45;100.00
55301;BME280;58302;51.446;-2.000;2023-09-07T07:01:20;103117.47;;;20.63;100.00
55301;BME280;58302;51.446;-2.000;2023-09-07T07:03:46;103056.16;;;20.71;100.00
55301;BME280;58302;51.446;-2.000;2023-09-07T07:06:12;103026.31;;;20.73;100.00
55301;BME280;58302;51.446;-2.000;2023-09-07T07:08:38;103005.59;;;20.81;100.00
55301;BME280;58302;51.446;-2.000;2023-09-07T07:11:04;103009.25;;;21.02;100.00
55301;BME280;58302;51.446;-2.000;2023-09-07T07:13:30;103003.53;;;21.39;100.00
55301;BME280;58302;51.446;-2.000;2023-09-07T07:15:56;102948.41;;;21.83;100.00
55301;BME280;58302;51.446;-2.000;2023-09-07T07:18:22;102867.91;;;22.29;100.00
55301;BME280;58302;51.446;-2.000;2023-09-07T07:20:48;102798.09;;;22.67;100.00
55301;BME280;58302;51.446;-2.000;2023-09-07T07:23:16;102721.97;;;23.12;100.00
55301;BME280;58302;51.446;-2.000;2023-09-07T07:25:42;102653.88;;;23.25;100.00
55301;BME280;58302;51.446;-2.000;2023-09-07T07:28:08;102611.81;;;23.36;100.00
55301;BME280;58302;51.446;-2.000;2023-09-07T07:30:35;102578.19;;;23.38;100.00
55301;BME280;58302;51.446;-2.000;2023-09-07T07:33:02;102562.69;;;23.37;100.00
55301;BME280;58302;51.446;-2.000;2023-09-07T07:35:34;102550.97;;;23.21;100.00
55301;BME280;58302;51.446;-2.000;2023-09-07T07:38:01;102555.19;;;23.19;100.00
55301;BME280;58302;51.446;-2.000;2023-09-07T07:40:30;102572.19;;;23.12;100.00
55301;BME280;58302;51.446;-2.000;2023-09-07T07:42:56;102581.56;;;22.97;100.00
55301;BME280;58302;51.446;-2.000;2023-09-07T07:45:22;102603.94;;;22.77;100.00
55301;BME280;58302;51.446;-2.000;2023-09-07T07:47:49;102626.13;;;22.77;100.00
55301;BME280;58302;51.446;-2.000;2023-09-07T07:50:15;102645.22;;;22.78;100.00
55301;BME280;58302;51.446;-2.000;2023-09-07T07:52:42;102668.72;;;22.86;100.00
55301;BME280;58302;51.446;-2.000;2023-09-07T07:55:09;102653.81;;;23.06;100.00
55301;BME280;58302;51.446;-2.000;2023-09-07T07:57:35;102623.34;;;23.25;100.00
55301;BME280;58302;51.446;-2.000;2023-09-07T08:00:02;102583.69;;;23.43;100.00
55301;BME280;58302;51.446;-2.000;2023-09-07T08:02:30;102566.25;;;23.56;100.00
55301;BME280;58302;51.446;-2.000;2023-09-07T08:04:57;102527.81;;;23.82;100.00
55301;BME280;58302;51.446;-2.000;2023-09-07T08:07:23;102520.13;;;23.93;100.00
55301;BME280;58302;51.446;-2.000;2023-09-07T08:09:49;102494.22;;;23.98;100.00
55301;BME280;58302;51.446;-2.000;2023-09-07T08:12:16;102490.44;;;24.07;100.00
55301;BME280;58302;51.446;-2.000;2023-09-07T08:14:43;102472.94;;;24.21;100.00
55301;BME280;58302;51.446;-2.000;2023-09-07T08:17:09;102467.28;;;24.26;100.00
55301;BME280;58302;51.446;-2.000;2023-09-07T08:19:35;102452.88;;;24.37;100.00
55301;BME280;58302;51.446;-2.000;2023-09-07T08:22:01;102456.72;;;24.78;100.00
55301;BME280;58302;51.446;-2.000;2023-09-07T08:24:30;102416.03;;;25.04;100.00
55301;BME280;58302;51.446;-2.000;2023-09-07T08:26:56;102365.63;;;25.51;100.00
55301;BME280;58302;51.446;-2.000;2023-09-07T08:29:27;102315.50;;;25.90;100.00
55301;BME280;58302;51.446;-2.000;2023-09-07T08:31:53;102258.00;;;26.46;100.00
55301;BME280;58302;51.446;-2.000;2023-09-07T08:34:20;102168.25;;;27.09;100.00
55301;BME280;58302;51.446;-2.000;2023-09-07T08:36:48;102021.94;;;27.51;100.00
55301;BME280;58302;51.446;-2.000;2023-09-07T08:39:16;101991.91;;;27.69;100.00
55301;BME280;58302;51.446;-2.000;2023-09-07T08:41:43;101942.97;;;28.08;100.00
55301;BME280;58302;51.446;-2.000;2023-09-07T08:44:10;102149.75;;;27.96;100.00
55301;BME280;58302;51.446;-2.000;2023-09-07T08:46:37;102345.75;;;27.95;100.00
55301;BME280;58302;51.446;-2.000;2023-09-07T08:49:04;102333.63;;;27.91;100.00
55301;BME280;58302;51.446;-2.000;2023-09-07T08:51:30;102336.72;;;27.98;100.00
55301;BME280;58302;51.446;-2.000;2023-09-07T08:54:02;102330.84;;;28.12;100.00
55301;BME280;58302;51.446;-2.000;2023-09-07T08:56:29;102265.78;;;28.23;100.00
55301;BME280;58302;51.446;-2.000;2023-09-07T08:58:56;102088.06;;;28.01;100.00
55301;BME280;58302;51.446;-2.000;2023-09-07T09:01:23;102007.28;;;28.08;100.00
55301;BME280;58302;51.446;-2.000;2023-09-07T09:03:49;101962.03;;;27.94;100.00
55301;BME280;58302;51.446;-2.000;2023-09-07T09:06:20;101912.91;;;27.81;100.00
55301;BME280;58302;51.446;-2.000;2023-09-07T09:08:49;101900.53;;;27.70;100.00
55301;BME280;58302;51.446;-2.000;2023-09-07T09:11:16;101871.03;;;27.60;100.00
55301;BME280;58302;51.446;-2.000;2023-09-07T09:13:43;101880.31;;;27.40;100.00
55301;BME280;58302;51.446;-2.000;2023-09-07T09:16:10;101882.84;;;27.78;100.00
55301;BME280;58302;51.446;-2.000;2023-09-07T09:18:37;101835.91;;;28.20;100.00
55301;BME280;58302;51.446;-2.000;2023-09-07T09:21:03;101780.91;;;28.37;100.00
55301;BME280;58302;51.446;-2.000;2023-09-07T09:23:36;101729.97;;;28.87;100.00
55301;BME280;58302;51.446;-2.000;2023-09-07T09:26:05;101635.22;;;29.52;100.00
55301;BME280;58302;51.446;-2.000;2023-09-07T09:28:32;101588.06;;;30.12;100.00
55301;BME280;58302;51.446;-2.000;2023-09-07T09:30:59;101599.31;;;30.58;100.00
55301;BME280;58302;51.446;-2.000;2023-09-07T09:33:26;101600.09;;;31.28;100.00
55301;BME280;58302;51.446;-2.000;2023-09-07T09:35:54;101615.84;;;31.36;100.00
55301;BME280;58302;51.446;-2.000;2023-09-07T09:38:20;101646.81;;;30.90;100.00
55301;BME280;58302;51.446;-2.000;2023-09-07T09:40:46;101647.41;;;31.26;100.00
55301;BME280;58302;51.446;-2.000;2023-09-07T09:43:12;101655.59;;;31.34;100.00
55301;BME280;58302;51.446;-2.000;2023-09-07T09:45:39;101679.50;;;31.02;100.00
55301;BME280;58302;51.446;-2.000;2023-09-07T09:48:06;101713.13;;;30.98;100.00
55301;BME280;58302;51.446;-2.000;2023-09-07T09:50:32;101740.88;;;30.80;100.00
55301;BME280;58302;51.446;-2.000;2023-09-07T09:53:06;101759.00;;;31.06;100.00
55301;BME280;58302;51.446;-2.000;2023-09-07T09:55:35;101762.84;;;31.40;100.00
55301;BME280;58302;51.446;-2.000;2023-09-07T09:58:01;101806.94;;;32.12;100.00
55301;BME280;58302;51.446;-2.000;2023-09-07T10:00:28;101801.25;;;32.65;100.00
55301;BME280;58302;51.446;-2.000;2023-09-07T10:03:04;101822.34;;;33.15;100.00
55301;BME280;58302;51.446;-2.000;2023-09-07T10:05:31;101758.16;;;33.94;100.00
55301;BME280;58302;51.446;-2.000;2023-09-07T10:08:03;101490.94;;;33.87;100.00
55301;BME280;58302;51.446;-2.000;2023-09-07T10:10:35;101408.75;;;34.35;100.00
55301;BME280;58302;51.446;-2.000;2023-09-07T10:13:02;101319.69;;;34.16;100.00
55301;BME280;58302;51.446;-2.000;2023-09-07T10:15:30;101329.78;;;34.03;100.00
55301;BME280;58302;51.446;-2.000;2023-09-07T10:18:08;101327.31;;;34.26;100.00
55301;BME280;58302;51.446;-2.000;2023-09-07T10:23:13;101160.75;;;34.44;100.00
55301;BME280;58302;51.446;-2.000;2023-09-07T10:25:39;101238.31;;;33.86;100.00
55301;BME280;58302;51.446;-2.000;2023-09-07T10:28:05;101299.94;;;33.38;100.00
55301;BME280;58302;51.446;-2.000;2023-09-07T10:30:42;101326.94;;;33.42;100.00
55301;BME280;58302;51.446;-2.000;2023-09-07T10:33:19;101400.56;;;33.34;100.00
55301;BME280;58302;51.446;-2.000;2023-09-07T10:35:46;101292.31;;;33.77;100.00
55301;BME280;58302;51.446;-2.000;2023-09-07T10:38:15;101162.88;;;34.12;100.00
55301;BME280;58302;51.446;-2.000;2023-09-07T10:40:43;101131.31;;;34.38;100.00
55301;BME280;58302;51.446;-2.000;2023-09-07T10:43:10;101099.03;;;34.39;100.00
55301;BME280;58302;51.446;-2.000;2023-09-07T10:45:36;101086.16;;;34.45;100.00
55301;BME280;58302;51.446;-2.000;2023-09-07T10:48:04;101087.38;;;34.93;100.00
55301;BME280;58302;51.446;-2.000;2023-09-07T10:50:31;101006.81;;;34.77;100.00
55301;BME280;58302;51.446;-2.000;2023-09-07T10:53:07;101010.66;;;34.53;100.00
55301;BME280;58302;51.446;-2.000;2023-09-07T10:55:37;101083.19;;;33.86;100.00
55301;BME280;58302;51.446;-2.000;2023-09-07T10:58:06;101125.88;;;33.99;100.00
55301;BME280;58302;51.446;-2.000;2023-09-07T11:00:34;101100.88;;;34.01;100.00
55301;BME280;58302;51.446;-2.000;2023-09-07T11:03:07;101040.38;;;34.13;100.00
55301;BME280;58302;51.446;-2.000;2023-09-07T11:05:34;101065.47;;;33.86;100.00
55301;BME280;58302;51.446;-2.000;2023-09-07T11:08:04;101074.75;;;33.82;100.00
55301;BME280;58302;51.446;-2.000;2023-09-07T11:10:34;101034.00;;;33.98;100.00
55301;BME280;58302;51.446;-2.000;2023-09-07T11:13:05;101038.00;;;34.07;100.00
55301;BME280;58302;51.446;-2.000;2023-09-07T11:15:32;100992.22;;;34.38;100.00
55301;BME280;58302;51.446;-2.000;2023-09-07T11:18:06;100978.72;;;34.63;100.00
55301;BME280;58302;51.446;-2.000;2023-09-07T11:20:34;100994.88;;;35.04;100.00
55301;BME280;58302;51.446;-2.000;2023-09-07T11:23:00;100891.94;;;35.35;100.00
55301;BME280;58302;51.446;-2.000;2023-09-07T11:25:26;100907.47;;;35.20;100.00
55301;BME280;58302;51.446;-2.000;2023-09-07T11:27:52;100914.91;;;35.37;100.00
55301;BME280;58302;51.446;-2.000;2023-09-07T11:30:21;100867.44;;;35.25;100.00
55301;BME280;58302;51.446;-2.000;2023-09-07T11:32:47;100857.25;;;35.31;100.00
55301;BME280;58302;51.446;-2.000;2023-09-07T11:35:13;100839.38;;;35.38;100.00
55301;BME280;58302;51.446;-2.000;2023-09-07T11:37:39;100827.34;;;35.88;100.00
55301;BME280;58302;51.446;-2.000;2023-09-07T11:40:06;100824.28;;;35.75;100.00
55301;BME280;58302;51.446;-2.000;2023-09-07T11:42:41;100827.41;;;35.57;100.00
55301;BME280;58302;51.446;-2.000;2023-09-07T11:45:07;100818.72;;;35.72;100.00
55301;BME280;58302;51.446;-2.000;2023-09-07T11:47:34;100796.25;;;35.84;100.00
55301;BME280;58302;51.446;-2.000;2023-09-07T11:50:01;100783.16;;;36.18;100.00
55301;BME280;58302;51.446;-2.000;2023-09-07T11:52:27;100779.88;;;36.19;100.00
55301;BME280;58302;51.446;-2.000;2023-09-07T11:54:53;100783.94;;;35.48;100.00
55301;BME280;58302;51.446;-2.000;2023-09-07T11:57:19;100787.03;;;35.30;100.00
55301;BME280;58302;51.446;-2.000;2023-09-07T11:59:45;100829.19;;;35.48;100.00
55301;BME280;58302;51.446;-2.000;2023-09-07T12:02:11;100794.25;;;35.61;100.00
55301;BME280;58302;51.446;-2.000;2023-09-07T12:04:40;100802.41;;;35.56;100.00
55301;BME280;58302;51.446;-2.000;2023-09-07T12:07:06;100783.91;;;35.98;100.00
55301;BME280;58302;51.446;-2.000;2023-09-07T12:09:32;100777.69;;;36.07;100.00
55301;BME280;58302;51.446;-2.000;2023-09-07T12:11:58;100760.09;;;36.59;100.00
55301;BME280;58302;51.446;-2.000;2023-09-07T12:14:24;100751.59;;;36.99;100.00
55301;BME280;58302;51.446;-2.000;2023-09-07T12:16:50;100740.59;;;37.01;100.00
55301;BME280;58302;51.446;-2.000;2023-09-07T12:19:16;100742.75;;;36.57;100.00
55301;BME280;58302;51.446;-2.000;2023-09-07T12:21:42;100743.25;;;36.12;100.00
55301;BME280;58302;51.446;-2.000;2023-09-07T12:24:08;100750.84;;;36.15;100.00
55301;BME280;58302;51.446;-2.000;2023-09-07T12:26:34;100756.09;;;36.17;100.00
55301;BME280;58302;51.446;-2.000;2023-09-07T12:29:00;100742.59;;;36.04;100.00
55301;BME280;58302;51.446;-2.000;2023-09-07T12:31:26;100738.72;;;36.74;100.00